createdAt,value
2017-09-17T00:01:39.178Z,90.66
2017-09-17T00:04:07.562Z,90.50
2017-09-17T00:06:35.935Z,90.92
2017-09-17T00:09:05.039Z,91.38
2017-09-17T00:11:33.409Z,91.50
2017-09-17T00:14:01.913Z,91.44
2017-09-17T00:16:30.232Z,90.66
2017-09-17T00:18:58.547Z,90.77
2017-09-17T00:21:27.369Z,91.16
2017-09-17T00:23:55.690Z,91.16
2017-09-17T00:26:24.016Z,91.14
2017-09-17T00:28:52.351Z,90.79
2017-09-17T00:31:24.143Z,90.57
2017-09-17T00:33:52.478Z,89.90
2017-09-17T00:36:21.665Z,90.28
2017-09-17T00:38:50.387Z,90.19
2017-09-17T00:41:18.739Z,89.68
2017-09-17T00:43:47.065Z,90.22
2017-09-17T00:46:16.156Z,91.10
2017-09-17T00:48:45.249Z,91.76
2017-09-17T00:51:13.590Z,91.82
2017-09-17T00:53:41.921Z,91.85
2017-09-17T00:56:10.260Z,91.64
2017-09-17T00:58:38.570Z,91.76
2017-09-17T01:01:07.947Z,91.67
2017-09-17T01:03:37.117Z,91.49
2017-09-17T01:06:05.432Z,91.63
2017-09-17T01:08:33.775Z,91.46
2017-09-17T01:11:02.093Z,91.49
2017-09-17T01:13:30.444Z,91.64
2017-09-17T01:15:58.763Z,91.28
2017-09-17T01:18:27.875Z,90.90
2017-09-17T01:20:56.200Z,91.07
2017-09-17T01:23:24.539Z,91.14
2017-09-17T01:25:52.859Z,91.56
2017-09-17T01:28:23.570Z,91.84
2017-09-17T01:30:51.911Z,91.65
2017-09-17T01:33:20.591Z,91.85
2017-09-17T01:35:48.933Z,91.92
2017-09-17T01:38:17.255Z,91.95
2017-09-17T01:40:46.340Z,91.62
2017-09-17T01:43:14.687Z,91.70
2017-09-17T01:45:43.020Z,91.56
2017-09-17T01:48:12.407Z,90.75
2017-09-17T01:50:40.729Z,90.83
2017-09-17T01:53:09.044Z,90.59
2017-09-17T01:55:37.508Z,89.85
2017-09-17T01:58:05.822Z,89.60
2017-09-17T02:00:34.152Z,89.58
2017-09-17T02:03:02.896Z,90.12
2017-09-17T02:05:32.006Z,90.17
2017-09-17T02:08:00.324Z,89.86
2017-09-17T02:10:28.647Z,89.70
2017-09-17T02:12:56.985Z,89.50
2017-09-17T02:15:25.308Z,89.27
2017-09-17T02:17:53.696Z,89.13
2017-09-17T02:20:22.009Z,90.09
2017-09-17T02:22:50.353Z,90.07
2017-09-17T02:25:18.681Z,89.30
2017-09-17T02:27:47.050Z,89.73
2017-09-17T02:30:15.461Z,90.54
2017-09-17T02:32:43.772Z,90.77
2017-09-17T02:35:12.888Z,90.37
2017-09-17T02:37:41.199Z,90.66
2017-09-17T02:40:09.610Z,90.84
2017-09-17T02:42:37.923Z,91.11
2017-09-17T02:45:06.246Z,91.05
2017-09-17T02:47:34.575Z,91.18
2017-09-17T02:50:02.877Z,91.29
2017-09-17T02:52:31.204Z,91.46
2017-09-17T02:54:59.532Z,91.73
2017-09-17T02:57:27.875Z,91.98
2017-09-17T02:59:56.982Z,91.95
2017-09-17T03:02:25.309Z,91.91
2017-09-17T03:04:53.665Z,91.54
2017-09-17T03:07:21.995Z,91.20
2017-09-17T03:09:50.343Z,91.68
2017-09-17T03:12:18.676Z,91.15
2017-09-17T03:14:47.572Z,91.08
2017-09-17T03:17:15.988Z,90.27
2017-09-17T03:19:44.316Z,90.62
2017-09-17T03:22:13.419Z,91.28
2017-09-17T03:24:41.769Z,91.27
2017-09-17T03:27:10.588Z,90.94
2017-09-17T03:29:39.675Z,91.15
2017-09-17T03:32:07.988Z,91.68
2017-09-17T03:34:36.326Z,91.37
2017-09-17T03:37:04.659Z,91.22
2017-09-17T03:39:32.984Z,90.82
2017-09-17T03:42:01.300Z,90.83
2017-09-17T03:44:29.895Z,91.41
2017-09-17T03:46:58.199Z,91.67
2017-09-17T03:49:26.619Z,91.55
2017-09-17T03:51:55.726Z,91.89
2017-09-17T03:54:24.799Z,91.28
2017-09-17T03:56:53.139Z,91.34
2017-09-17T03:59:21.461Z,91.03
2017-09-17T04:01:50.105Z,90.29
2017-09-17T04:04:18.409Z,90.85
2017-09-17T04:06:47.127Z,91.09
2017-09-17T04:09:16.235Z,91.16
2017-09-17T04:11:44.537Z,91.11
2017-09-17T04:14:12.866Z,91.15
2017-09-17T04:16:41.197Z,91.25
2017-09-17T04:19:10.207Z,91.54
2017-09-17T04:21:38.517Z,90.88
2017-09-17T04:24:06.845Z,90.79
2017-09-17T04:26:35.185Z,90.91
2017-09-17T04:29:03.523Z,90.86
2017-09-17T04:31:31.881Z,90.67
2017-09-17T04:34:00.190Z,90.14
2017-09-17T04:36:29.030Z,90.93
2017-09-17T04:38:57.392Z,91.21
2017-09-17T04:41:25.699Z,91.12
2017-09-17T04:43:54.036Z,91.19
2017-09-17T04:46:22.340Z,91.33
2017-09-17T04:48:51.530Z,91.18
2017-09-17T04:51:19.838Z,91.36
2017-09-17T04:53:48.214Z,91.80
2017-09-17T04:56:16.542Z,91.80
2017-09-17T04:58:44.860Z,91.50
2017-09-17T05:01:13.184Z,91.64
2017-09-17T05:03:41.502Z,91.20
2017-09-17T05:06:10.180Z,90.78
2017-09-17T05:08:38.504Z,90.30
2017-09-17T05:11:06.833Z,90.67
2017-09-17T05:13:35.164Z,91.50
2017-09-17T05:16:03.485Z,91.94
2017-09-17T05:18:31.823Z,91.76
2017-09-17T05:21:00.193Z,92.02
2017-09-17T05:23:28.521Z,91.70
2017-09-17T05:25:56.858Z,91.50
2017-09-17T05:28:25.210Z,92.01
2017-09-17T05:30:53.586Z,91.90
2017-09-17T05:33:22.654Z,91.76
2017-09-17T05:35:51.078Z,91.45
2017-09-17T05:38:19.401Z,91.74
2017-09-17T05:40:47.717Z,91.87
2017-09-17T05:43:16.817Z,92.30
2017-09-17T05:45:45.921Z,92.19
2017-09-17T05:48:14.273Z,91.96
2017-09-17T05:50:43.098Z,91.68
2017-09-17T05:53:11.875Z,91.14
2017-09-17T05:55:40.976Z,90.90
2017-09-17T05:58:09.306Z,91.11
2017-09-17T06:00:37.640Z,91.56
2017-09-17T06:03:05.951Z,91.82
2017-09-17T06:05:34.300Z,91.89
2017-09-17T06:08:02.639Z,91.90
2017-09-17T06:10:30.986Z,91.71
2017-09-17T06:12:59.427Z,91.80
2017-09-17T06:15:28.528Z,92.10
2017-09-17T06:17:56.855Z,92.34
2017-09-17T06:20:25.200Z,91.76
2017-09-17T06:22:53.537Z,91.14
2017-09-17T06:25:22.636Z,91.10
2017-09-17T06:27:51.242Z,91.73
2017-09-17T06:30:20.337Z,91.78
2017-09-17T06:32:48.657Z,91.32
2017-09-17T06:35:17.060Z,90.67
2017-09-17T06:37:49.811Z,89.89
2017-09-17T06:40:18.374Z,89.51
2017-09-17T06:42:47.959Z,89.58
2017-09-17T06:45:17.712Z,89.76
2017-09-17T06:47:46.852Z,90.05
2017-09-17T06:50:15.938Z,89.72
2017-09-17T06:52:44.849Z,90.59
2017-09-17T06:55:13.660Z,90.43
2017-09-17T06:57:43.307Z,89.83
2017-09-17T07:00:11.631Z,89.30
2017-09-17T07:02:39.992Z,89.28
2017-09-17T07:05:08.337Z,89.66
2017-09-17T07:07:36.656Z,88.96
2017-09-17T07:10:04.997Z,88.49
2017-09-17T07:12:33.314Z,88.52
2017-09-17T07:15:01.661Z,88.68
2017-09-17T07:17:29.980Z,88.56
2017-09-17T07:19:58.569Z,88.56
2017-09-17T07:22:26.884Z,88.71
2017-09-17T07:24:55.217Z,88.58
2017-09-17T07:27:23.569Z,88.48
2017-09-17T07:29:51.889Z,89.04
2017-09-17T07:32:21.086Z,89.64
2017-09-17T07:34:49.404Z,89.19
2017-09-17T07:37:18.015Z,88.64
2017-09-17T07:39:46.345Z,88.15
2017-09-17T07:42:15.461Z,87.79
2017-09-17T07:44:43.804Z,87.60
2017-09-17T07:47:12.123Z,87.94
2017-09-17T07:49:40.494Z,87.75
2017-09-17T07:52:08.815Z,87.96
2017-09-17T07:54:37.148Z,87.69
2017-09-17T07:57:06.270Z,87.53
2017-09-17T07:59:34.627Z,87.69
2017-09-17T08:02:03.815Z,87.86
2017-09-17T08:04:32.918Z,87.42
2017-09-17T08:07:02.145Z,86.95
2017-09-17T08:09:30.460Z,87.12
2017-09-17T08:11:58.801Z,87.01
2017-09-17T08:14:27.171Z,87.87
2017-09-17T08:16:56.417Z,88.55
2017-09-17T08:19:24.760Z,88.37
2017-09-17T08:21:53.078Z,89.06
2017-09-17T08:24:22.442Z,89.38
2017-09-17T08:26:50.776Z,89.28
2017-09-17T08:29:19.146Z,89.58
2017-09-17T08:31:47.474Z,90.24
2017-09-17T08:34:15.825Z,89.84
2017-09-17T08:36:44.921Z,89.60
2017-09-17T08:39:14.126Z,89.37
2017-09-17T08:41:43.512Z,89.32
2017-09-17T08:44:11.857Z,89.08
2017-09-17T08:46:40.175Z,89.55
2017-09-17T08:49:08.528Z,88.56
2017-09-17T08:51:36.871Z,88.98
2017-09-17T08:54:05.226Z,88.46
2017-09-17T08:56:33.555Z,88.78
2017-09-17T08:59:01.896Z,88.66
2017-09-17T09:01:30.222Z,88.55
2017-09-17T09:03:58.539Z,88.70
2017-09-17T09:06:27.644Z,88.87
2017-09-17T09:08:56.847Z,89.15
2017-09-17T09:11:25.209Z,89.27
2017-09-17T09:13:54.304Z,89.97
2017-09-17T09:16:23.514Z,90.28
2017-09-17T09:18:52.628Z,90.07
2017-09-17T09:21:20.962Z,90.33
2017-09-17T09:23:49.296Z,90.41
2017-09-17T09:26:17.613Z,90.68
2017-09-17T09:28:45.955Z,90.15
2017-09-17T09:31:14.266Z,90.17
2017-09-17T09:33:42.612Z,89.90
2017-09-17T09:36:10.974Z,90.24
2017-09-17T09:38:39.306Z,90.38
2017-09-17T09:41:07.657Z,91.12
2017-09-17T09:43:35.975Z,91.21
2017-09-17T09:46:04.388Z,91.52
2017-09-17T09:48:33.476Z,91.34
2017-09-17T09:51:02.611Z,91.80
2017-09-17T09:53:30.955Z,92.00
2017-09-17T09:55:59.461Z,91.57
2017-09-17T09:58:27.829Z,92.06
2017-09-17T10:00:56.161Z,92.01
2017-09-17T10:03:24.517Z,91.81
2017-09-17T10:05:52.845Z,91.77
2017-09-17T10:08:23.592Z,91.73
2017-09-17T10:10:51.930Z,92.16
2017-09-17T10:13:20.257Z,91.60
2017-09-17T10:15:48.613Z,91.23
2017-09-17T10:18:16.941Z,90.81
2017-09-17T10:20:45.271Z,91.22
2017-09-17T10:23:14.073Z,91.52
2017-09-17T10:25:43.452Z,90.95
2017-09-17T10:28:11.864Z,90.29
2017-09-17T10:30:40.176Z,90.80
2017-09-17T10:33:08.529Z,91.22
2017-09-17T10:35:36.851Z,90.99
2017-09-17T10:38:05.222Z,89.92
2017-09-17T10:40:33.569Z,88.50
2017-09-17T10:43:01.916Z,88.42
2017-09-17T10:45:30.246Z,87.81
2017-09-17T10:47:58.583Z,86.77
2017-09-17T10:50:26.923Z,84.84
2017-09-17T10:52:55.249Z,75.12
2017-09-17T10:55:24.347Z,73.31
2017-09-17T10:57:52.683Z,75.84
2017-09-17T11:00:21.080Z,75.96
2017-09-17T11:02:49.395Z,74.84
2017-09-17T11:05:18.656Z,70.87
2017-09-17T11:07:47.000Z,70.29
2017-09-17T11:10:15.318Z,70.26
2017-09-17T11:12:43.672Z,68.90
2017-09-17T11:15:12.010Z,68.08
2017-09-17T11:17:40.616Z,71.22
2017-09-17T11:20:08.966Z,69.06
2017-09-17T11:22:38.078Z,68.56
2017-09-17T11:25:06.422Z,69.98
2017-09-17T11:27:34.803Z,73.08
2017-09-17T11:30:03.139Z,69.72
2017-09-17T11:32:31.469Z,69.80
2017-09-17T11:35:00.573Z,68.73
2017-09-17T11:37:28.946Z,69.38
2017-09-17T11:39:57.278Z,66.91
2017-09-17T11:42:25.649Z,66.07
2017-09-17T11:44:54.744Z,64.88
2017-09-17T11:47:23.080Z,67.18
2017-09-17T11:49:51.409Z,66.95
2017-09-17T11:52:20.157Z,68.88
2017-09-17T11:54:48.497Z,71.90
2017-09-17T11:57:16.833Z,72.51
2017-09-17T11:59:45.177Z,68.83
2017-09-17T12:02:13.558Z,66.65
2017-09-17T12:04:41.955Z,67.15
2017-09-17T12:07:11.047Z,66.46
2017-09-17T12:09:39.702Z,69.01
2017-09-17T12:12:08.032Z,64.03
2017-09-17T12:14:36.528Z,68.08
2017-09-17T12:17:04.985Z,66.63
2017-09-17T12:19:34.060Z,63.39
2017-09-17T12:22:02.485Z,64.72
2017-09-17T12:24:30.836Z,63.50
2017-09-17T12:27:00.231Z,63.74
2017-09-17T12:29:28.656Z,64.49
2017-09-17T12:31:57.002Z,64.70
2017-09-17T12:34:25.336Z,63.69
2017-09-17T12:36:53.671Z,65.19
2017-09-17T12:39:22.011Z,66.77
2017-09-17T12:41:50.327Z,67.37
2017-09-17T12:44:18.895Z,69.73
2017-09-17T12:46:47.252Z,66.12
2017-09-17T12:49:15.797Z,68.46
2017-09-17T12:51:44.284Z,67.33
2017-09-17T12:54:12.608Z,68.43
2017-09-17T12:56:40.947Z,69.62
2017-09-17T12:59:09.314Z,68.88
2017-09-17T13:01:37.854Z,68.31
2017-09-17T13:04:06.250Z,67.14
2017-09-17T13:06:34.611Z,68.37
2017-09-17T13:09:02.952Z,70.44
2017-09-17T13:11:31.290Z,68.32
2017-09-17T13:14:00.410Z,70.90
2017-09-17T13:16:28.741Z,68.38
2017-09-17T13:18:57.088Z,68.33
2017-09-17T13:21:25.433Z,67.81
2017-09-17T13:23:53.775Z,67.23
2017-09-17T13:26:22.329Z,68.30
2017-09-17T13:28:50.655Z,67.36
2017-09-17T13:31:19.165Z,68.32
2017-09-17T13:33:47.491Z,70.56
2017-09-17T13:36:16.093Z,69.83
2017-09-17T13:38:44.436Z,68.07
2017-09-17T13:41:13.010Z,66.81
2017-09-17T13:43:41.394Z,65.45
2017-09-17T13:46:09.719Z,65.45
2017-09-17T13:48:39.274Z,65.86
2017-09-17T13:51:07.609Z,67.47
2017-09-17T13:53:35.949Z,70.05
2017-09-17T13:56:04.324Z,70.65
2017-09-17T13:58:32.695Z,69.20
2017-09-17T14:01:01.429Z,70.61
2017-09-17T14:03:29.863Z,69.53
2017-09-17T14:05:58.447Z,68.80
2017-09-17T14:08:36.756Z,69.20
2017-09-17T14:11:06.091Z,70.95
2017-09-17T14:13:34.449Z,72.85
2017-09-17T14:16:02.829Z,72.61
2017-09-17T14:18:31.210Z,69.56
2017-09-17T14:20:59.542Z,69.40
2017-09-17T14:23:28.932Z,69.77
2017-09-17T14:25:58.519Z,69.92
2017-09-17T14:28:26.884Z,68.14
2017-09-17T14:30:55.252Z,67.53
2017-09-17T14:33:23.586Z,68.23
2017-09-17T14:35:51.947Z,66.72
2017-09-17T14:38:20.316Z,64.52
2017-09-17T14:40:48.668Z,63.76
2017-09-17T14:43:17.020Z,63.76
2017-09-17T14:45:46.119Z,62.12
2017-09-17T14:48:15.246Z,62.10
2017-09-17T14:50:43.555Z,62.78
2017-09-17T14:53:12.094Z,61.43
2017-09-17T14:55:41.421Z,60.27
2017-09-17T14:58:10.710Z,61.97
2017-09-17T15:00:39.074Z,64.08
2017-09-17T15:03:07.454Z,63.48
2017-09-17T15:05:36.752Z,60.21
2017-09-17T15:08:05.103Z,58.82
2017-09-17T15:10:33.555Z,60.50
2017-09-17T15:13:01.889Z,64.47
2017-09-17T15:15:30.628Z,64.73
2017-09-17T15:18:00.168Z,65.57
2017-09-17T15:20:28.564Z,65.24
2017-09-17T15:22:57.871Z,66.55
2017-09-17T15:25:26.240Z,67.51
2017-09-17T15:27:55.604Z,68.07
2017-09-17T15:30:23.953Z,70.16
2017-09-17T15:32:52.314Z,70.87
2017-09-17T15:35:20.710Z,69.84
2017-09-17T15:37:49.072Z,70.90
2017-09-17T15:40:17.544Z,71.26
2017-09-17T15:42:46.728Z,71.27
2017-09-17T15:45:15.124Z,71.77
2017-09-17T15:47:45.360Z,72.27
2017-09-17T15:50:16.152Z,72.39
2017-09-17T15:52:44.556Z,72.39
2017-09-17T15:55:13.868Z,72.68
2017-09-17T15:57:44.108Z,73.09
2017-09-17T16:00:12.468Z,73.06
2017-09-17T16:02:43.491Z,73.50
2017-09-17T16:05:12.966Z,73.78
2017-09-17T16:07:41.340Z,74.12
2017-09-17T16:10:10.644Z,74.26
2017-09-17T16:12:43.934Z,73.75
2017-09-17T16:15:12.287Z,73.89
2017-09-17T16:17:40.973Z,74.75
2017-09-17T16:20:09.355Z,74.91
2017-09-17T16:22:37.754Z,75.04
2017-09-17T16:25:07.062Z,75.37
2017-09-17T16:27:35.490Z,75.23
2017-09-17T16:30:04.969Z,75.78
2017-09-17T16:32:34.314Z,74.93
2017-09-17T16:35:03.423Z,76.25
2017-09-17T16:37:31.765Z,76.48
2017-09-17T16:40:01.308Z,76.73
2017-09-17T16:42:29.685Z,76.64
2017-09-17T16:44:58.062Z,76.67
2017-09-17T16:47:27.637Z,75.42
2017-09-17T16:49:56.081Z,74.41
2017-09-17T16:52:26.575Z,74.66
2017-09-17T16:54:55.709Z,75.70
2017-09-17T16:57:24.254Z,76.02
2017-09-17T16:59:53.582Z,76.96
2017-09-17T17:02:22.678Z,77.67
2017-09-17T17:04:54.345Z,77.98
2017-09-17T17:07:26.360Z,77.92
2017-09-17T17:09:54.791Z,78.47
2017-09-17T17:12:23.138Z,77.96
2017-09-17T17:14:52.453Z,78.08
2017-09-17T17:17:20.836Z,78.37
2017-09-17T17:19:49.203Z,78.77
2017-09-17T17:22:18.507Z,78.82
2017-09-17T17:24:46.871Z,78.78
2017-09-17T17:27:16.009Z,78.86
2017-09-17T17:29:44.374Z,78.98
2017-09-17T17:32:12.774Z,79.37
2017-09-17T17:34:41.341Z,79.09
2017-09-17T17:37:11.390Z,79.37
2017-09-17T17:39:39.944Z,80.38
2017-09-17T17:42:08.300Z,81.60
2017-09-17T17:44:39.470Z,82.14
2017-09-17T17:47:07.889Z,82.23
2017-09-17T17:49:36.220Z,82.20
2017-09-17T17:52:05.367Z,81.89
2017-09-17T17:54:33.944Z,81.46
2017-09-17T17:57:02.311Z,81.55
2017-09-17T17:59:30.680Z,81.29
2017-09-17T18:01:59.034Z,81.29
2017-09-17T18:04:29.275Z,80.87
2017-09-17T18:06:57.658Z,80.54
2017-09-17T18:09:26.301Z,80.76
2017-09-17T18:11:54.700Z,81.30
2017-09-17T18:14:23.995Z,80.90
2017-09-17T18:16:53.339Z,81.60
2017-09-17T18:19:23.622Z,82.00
2017-09-17T18:21:52.850Z,82.01
2017-09-17T18:24:21.656Z,81.88
2017-09-17T18:26:57.106Z,81.46
2017-09-17T18:29:28.013Z,81.46
2017-09-17T18:32:10.342Z,81.14
2017-09-17T18:37:28.324Z,81.93
2017-09-17T18:39:56.670Z,82.74
2017-09-17T18:42:25.042Z,83.66
2017-09-17T18:44:57.112Z,83.76
2017-09-17T18:47:25.467Z,83.01
2017-09-17T18:49:54.788Z,82.99
2017-09-17T18:52:24.123Z,83.29
2017-09-17T18:54:52.500Z,83.65
2017-09-17T18:57:20.834Z,83.75
2017-09-17T18:59:50.222Z,84.26
2017-09-17T19:02:18.650Z,84.42
2017-09-17T19:05:08.276Z,85.05
2017-09-17T19:07:37.718Z,85.37
2017-09-17T19:10:07.011Z,85.59
2017-09-17T19:12:36.316Z,85.24
2017-09-17T19:15:05.627Z,85.29
2017-09-17T19:17:34.044Z,85.60
2017-09-17T19:20:02.381Z,85.94
2017-09-17T19:22:30.759Z,86.13
2017-09-17T19:25:00.068Z,86.37
2017-09-17T19:27:28.415Z,86.31
2017-09-17T19:29:56.829Z,86.68
2017-09-17T19:32:25.203Z,86.97
2017-09-17T19:34:54.511Z,87.14
2017-09-17T19:37:22.876Z,86.73
2017-09-17T19:39:52.507Z,87.15
2017-09-17T19:42:20.871Z,87.25
2017-09-17T19:44:50.169Z,86.72
2017-09-17T19:47:19.484Z,87.02
2017-09-17T19:49:47.849Z,87.19
2017-09-17T19:52:17.162Z,87.15
2017-09-17T19:54:46.454Z,87.36
2017-09-17T19:57:15.895Z,87.58
2017-09-17T19:59:44.443Z,87.64
2017-09-17T20:02:12.804Z,87.51
2017-09-17T20:04:42.148Z,87.21
2017-09-17T20:07:10.501Z,87.72
2017-09-17T20:09:38.928Z,86.93
2017-09-17T20:12:07.264Z,87.21
2017-09-17T20:14:38.878Z,87.84
2017-09-17T20:17:07.409Z,87.82
2017-09-17T20:19:36.702Z,86.81
2017-09-17T20:22:06.015Z,86.33
2017-09-17T20:24:35.306Z,87.09
2017-09-17T20:27:04.652Z,87.01
2017-09-17T20:29:32.998Z,86.81
2017-09-17T20:32:02.307Z,86.72
2017-09-17T20:34:30.683Z,87.14
2017-09-17T20:36:59.967Z,87.26
2017-09-17T20:39:29.289Z,87.31
2017-09-17T20:41:57.662Z,88.05
2017-09-17T20:44:26.964Z,87.24
2017-09-17T20:46:56.263Z,87.17
2017-09-17T20:49:25.597Z,86.15
2017-09-17T20:51:54.869Z,85.87
2017-09-17T20:54:24.154Z,87.51
2017-09-17T20:56:53.465Z,87.93
2017-09-17T20:59:22.790Z,86.68
2017-09-17T21:01:51.155Z,86.43
2017-09-17T21:04:20.449Z,87.25
2017-09-17T21:06:49.771Z,88.25
2017-09-17T21:09:18.125Z,88.11
2017-09-17T21:11:47.431Z,88.32
2017-09-17T21:14:16.755Z,87.99
2017-09-17T21:16:45.095Z,88.09
2017-09-17T21:19:13.490Z,88.32
2017-09-17T21:21:42.776Z,88.28
2017-09-17T21:24:11.173Z,88.17
2017-09-17T21:26:40.472Z,87.84
2017-09-17T21:29:09.776Z,87.22
2017-09-17T21:31:39.166Z,87.90
2017-09-17T21:34:07.526Z,87.76
2017-09-17T21:36:35.876Z,88.30
2017-09-17T21:39:04.201Z,87.74
2017-09-17T21:41:32.604Z,87.88
2017-09-17T21:44:01.966Z,87.15
2017-09-17T21:46:30.455Z,87.93
2017-09-17T21:48:59.042Z,88.64
2017-09-17T21:51:28.562Z,88.87
2017-09-17T21:53:56.957Z,88.83
2017-09-17T21:56:26.258Z,89.02
2017-09-17T21:58:55.858Z,89.09
2017-09-17T22:01:25.154Z,89.13
2017-09-17T22:03:53.522Z,89.03
2017-09-17T22:06:21.932Z,88.40
2017-09-17T22:08:51.230Z,88.12
2017-09-17T22:11:20.528Z,88.34
2017-09-17T22:13:48.904Z,88.30
2017-09-17T22:16:18.215Z,88.52
2017-09-17T22:18:47.483Z,88.65
2017-09-17T22:21:15.891Z,88.61
2017-09-17T22:23:45.218Z,88.53
2017-09-17T22:26:13.569Z,88.31
2017-09-17T22:28:42.890Z,88.21
2017-09-17T22:31:11.251Z,87.90
2017-09-17T22:33:40.971Z,88.41
2017-09-17T22:36:11.095Z,88.88
2017-09-17T22:38:40.413Z,88.26
2017-09-17T22:41:08.762Z,88.20
2017-09-17T22:43:37.154Z,88.51
2017-09-17T22:46:06.457Z,88.24
2017-09-17T22:48:35.731Z,88.79
2017-09-17T22:51:04.142Z,88.97
2017-09-17T22:53:33.458Z,88.63
2017-09-17T22:56:02.231Z,88.84
2017-09-17T22:58:30.544Z,88.65
2017-09-17T23:00:58.889Z,88.34
2017-09-17T23:03:28.192Z,88.70
2017-09-17T23:05:57.465Z,89.34
2017-09-17T23:08:25.866Z,88.64
2017-09-17T23:10:55.686Z,88.50
2017-09-17T23:13:24.572Z,88.67
2017-09-17T23:15:52.902Z,88.54
2017-09-17T23:18:21.233Z,88.81
2017-09-17T23:20:50.549Z,88.57
2017-09-17T23:23:19.220Z,88.89
2017-09-17T23:25:48.511Z,88.90
2017-09-17T23:28:16.879Z,89.23
2017-09-17T23:30:45.693Z,88.09
2017-09-17T23:33:14.032Z,88.28
2017-09-17T23:35:42.350Z,88.66
2017-09-17T23:38:11.719Z,88.90
2017-09-17T23:40:40.067Z,88.79
2017-09-17T23:43:08.418Z,88.62
2017-09-17T23:45:37.708Z,89.32
2017-09-17T23:48:07.028Z,89.02
2017-09-17T23:50:35.391Z,88.42
2017-09-17T23:53:04.677Z,88.79
2017-09-17T23:55:33.080Z,88.71
2017-09-17T23:58:02.368Z,88.94
